sensor_id;sensor_type;location;lat;lon;timestamp;temperature;humidity
27797;DHT22;15177;50.844;4.412;2024-01-27T00:01:24;6.60;99.90
27797;DHT22;15177;50.844;4.412;2024-01-27T00:03:50;6.70;99.90
27797;DHT22;15177;50.844;4.412;2024-01-27T00:06:19;6.70;99.90
27797;DHT22;15177;50.844;4.412;2024-01-27T00:08:45;6.80;99.90
27797;DHT22;15177;50.844;4.412;2024-01-27T00:11:12;6.60;99.90
27797;DHT22;15177;50.844;4.412;2024-01-27T00:13:38;6.70;99.90
27797;DHT22;15177;50.844;4.412;2024-01-27T00:16:07;6.60;99.90
27797;DHT22;15177;50.844;4.412;2024-01-27T00:18:35;6.60;99.90
27797;DHT22;15177;50.844;4.412;2024-01-27T00:21:00;6.50;99.90
27797;DHT22;15177;50.844;4.412;2024-01-27T00:23:26;6.50;99.90
27797;DHT22;15177;50.844;4.412;2024-01-27T00:25:52;6.50;99.90
27797;DHT22;15177;50.844;4.412;2024-01-27T00:28:18;6.40;99.90
27797;DHT22;15177;50.844;4.412;2024-01-27T00:30:43;6.40;99.90
27797;DHT22;15177;50.844;4.412;2024-01-27T00:33:11;6.60;99.90
27797;DHT22;15177;50.844;4.412;2024-01-27T00:35:37;6.60;99.90
27797;DHT22;15177;50.844;4.412;2024-01-27T00:38:05;6.50;99.90
27797;DHT22;15177;50.844;4.412;2024-01-27T00:40:30;6.50;99.90
27797;DHT22;15177;50.844;4.412;2024-01-27T00:42:56;6.50;99.90
27797;DHT22;15177;50.844;4.412;2024-01-27T00:45:22;6.50;99.90
27797;DHT22;15177;50.844;4.412;2024-01-27T00:47:52;6.40;99.90
27797;DHT22;15177;50.844;4.412;2024-01-27T00:50:18;6.40;99.90
27797;DHT22;15177;50.844;4.412;2024-01-27T00:52:44;6.40;99.90
27797;DHT22;15177;50.844;4.412;2024-01-27T00:55:09;6.40;99.90
27797;DHT22;15177;50.844;4.412;2024-01-27T00:57:39;6.30;99.90
27797;DHT22;15177;50.844;4.412;2024-01-27T01:00:08;6.30;99.90
27797;DHT22;15177;50.844;4.412;2024-01-27T01:02:35;6.30;99.90
27797;DHT22;15177;50.844;4.412;2024-01-27T01:05:04;6.30;99.90
27797;DHT22;15177;50.844;4.412;2024-01-27T01:07:33;6.40;99.90
27797;DHT22;15177;50.844;4.412;2024-01-27T01:10:01;6.30;99.90
27797;DHT22;15177;50.844;4.412;2024-01-27T01:12:30;6.20;99.90
27797;DHT22;15177;50.844;4.412;2024-01-27T01:15:00;6.20;99.90
27797;DHT22;15177;50.844;4.412;2024-01-27T01:17:28;6.30;99.90
27797;DHT22;15177;50.844;4.412;2024-01-27T01:19:54;6.30;99.90
27797;DHT22;15177;50.844;4.412;2024-01-27T01:22:22;6.20;99.90
27797;DHT22;15177;50.844;4.412;2024-01-27T01:24:50;6.30;99.90
27797;DHT22;15177;50.844;4.412;2024-01-27T01:27:16;6.20;99.90
27797;DHT22;15177;50.844;4.412;2024-01-27T01:29:49;6.20;99.90
27797;DHT22;15177;50.844;4.412;2024-01-27T01:32:14;6.10;99.90
27797;DHT22;15177;50.844;4.412;2024-01-27T01:34:45;6.10;99.90
27797;DHT22;15177;50.844;4.412;2024-01-27T01:37:11;6.20;99.90
27797;DHT22;15177;50.844;4.412;2024-01-27T01:39:36;6.30;99.90
27797;DHT22;15177;50.844;4.412;2024-01-27T01:42:02;6.20;99.90
27797;DHT22;15177;50.844;4.412;2024-01-27T01:44:30;6.10;99.90
27797;DHT22;15177;50.844;4.412;2024-01-27T01:46:57;6.10;99.90
27797;DHT22;15177;50.844;4.412;2024-01-27T01:49:23;6.10;99.90
27797;DHT22;15177;50.844;4.412;2024-01-27T01:51:49;6.10;99.90
27797;DHT22;15177;50.844;4.412;2024-01-27T01:54:15;6.20;99.90
27797;DHT22;15177;50.844;4.412;2024-01-27T01:56:45;6.10;99.90
27797;DHT22;15177;50.844;4.412;2024-01-27T01:59:10;6.30;99.90
27797;DHT22;15177;50.844;4.412;2024-01-27T02:01:36;6.10;99.90
27797;DHT22;15177;50.844;4.412;2024-01-27T02:04:04;6.10;99.90
27797;DHT22;15177;50.844;4.412;2024-01-27T02:06:29;6.10;99.90
27797;DHT22;15177;50.844;4.412;2024-01-27T02:08:57;6.00;99.90
27797;DHT22;15177;50.844;4.412;2024-01-27T02:11:23;6.00;99.90
27797;DHT22;15177;50.844;4.412;2024-01-27T02:13:51;6.10;99.90
27797;DHT22;15177;50.844;4.412;2024-01-27T02:16:17;6.00;99.90
27797;DHT22;15177;50.844;4.412;2024-01-27T02:18:43;6.10;99.90
27797;DHT22;15177;50.844;4.412;2024-01-27T02:21:09;6.00;99.90
27797;DHT22;15177;50.844;4.412;2024-01-27T02:23:34;6.00;99.90
27797;DHT22;15177;50.844;4.412;2024-01-27T02:26:00;6.00;99.90
27797;DHT22;15177;50.844;4.412;2024-01-27T02:28:26;5.90;99.90
27797;DHT22;15177;50.844;4.412;2024-01-27T02:30:51;5.90;99.90
27797;DHT22;15177;50.844;4.412;2024-01-27T02:33:17;5.90;99.90
27797;DHT22;15177;50.844;4.412;2024-01-27T02:35:43;5.90;99.90
27797;DHT22;15177;50.844;4.412;2024-01-27T02:38:11;5.80;99.90
27797;DHT22;15177;50.844;4.412;2024-01-27T02:40:37;5.80;99.90
27797;DHT22;15177;50.844;4.412;2024-01-27T02:43:03;5.90;99.90
27797;DHT22;15177;50.844;4.412;2024-01-27T02:45:31;5.90;99.90
27797;DHT22;15177;50.844;4.412;2024-01-27T02:47:56;5.90;99.90
27797;DHT22;15177;50.844;4.412;2024-01-27T02:50:27;5.90;99.90
27797;DHT22;15177;50.844;4.412;2024-01-27T02:52:53;5.70;99.90
27797;DHT22;15177;50.844;4.412;2024-01-27T02:55:18;5.80;99.90
27797;DHT22;15177;50.844;4.412;2024-01-27T02:57:44;5.90;99.90
27797;DHT22;15177;50.844;4.412;2024-01-27T03:00:10;5.80;99.90
27797;DHT22;15177;50.844;4.412;2024-01-27T03:02:36;5.70;99.90
27797;DHT22;15177;50.844;4.412;2024-01-27T03:05:04;5.70;99.90
27797;DHT22;15177;50.844;4.412;2024-01-27T03:07:30;5.60;99.90
27797;DHT22;15177;50.844;4.412;2024-01-27T03:09:56;5.60;99.90
27797;DHT22;15177;50.844;4.412;2024-01-27T03:12:24;5.70;99.90
27797;DHT22;15177;50.844;4.412;2024-01-27T03:14:49;5.70;99.90
27797;DHT22;15177;50.844;4.412;2024-01-27T03:17:17;5.70;99.90
27797;DHT22;15177;50.844;4.412;2024-01-27T03:19:43;5.70;99.90
27797;DHT22;15177;50.844;4.412;2024-01-27T03:22:08;5.70;99.90
27797;DHT22;15177;50.844;4.412;2024-01-27T03:24:36;5.70;99.90
27797;DHT22;15177;50.844;4.412;2024-01-27T03:27:02;5.60;99.90
27797;DHT22;15177;50.844;4.412;2024-01-27T03:29:30;5.70;99.90
27797;DHT22;15177;50.844;4.412;2024-01-27T03:31:56;5.60;99.90
27797;DHT22;15177;50.844;4.412;2024-01-27T03:34:22;5.60;99.90
27797;DHT22;15177;50.844;4.412;2024-01-27T03:36:50;5.60;99.90
27797;DHT22;15177;50.844;4.412;2024-01-27T03:39:25;5.60;99.90
27797;DHT22;15177;50.844;4.412;2024-01-27T03:41:51;5.80;99.90
27797;DHT22;15177;50.844;4.412;2024-01-27T03:44:20;5.80;99.90
27797;DHT22;15177;50.844;4.412;2024-01-27T03:46:50;5.80;99.90
27797;DHT22;15177;50.844;4.412;2024-01-27T03:49:18;5.80;99.90
27797;DHT22;15177;50.844;4.412;2024-01-27T03:51:44;5.70;99.90
27797;DHT22;15177;50.844;4.412;2024-01-27T03:54:12;5.70;99.90
27797;DHT22;15177;50.844;4.412;2024-01-27T03:56:39;5.70;99.90
27797;DHT22;15177;50.844;4.412;2024-01-27T03:59:07;5.60;99.90
27797;DHT22;15177;50.844;4.412;2024-01-27T04:01:41;5.60;99.90
27797;DHT22;15177;50.844;4.412;2024-01-27T04:04:09;5.60;99.90
27797;DHT22;15177;50.844;4.412;2024-01-27T04:06:39;5.70;99.90
27797;DHT22;15177;50.844;4.412;2024-01-27T04:09:06;5.60;99.90
27797;DHT22;15177;50.844;4.412;2024-01-27T04:11:35;5.60;99.90
27797;DHT22;15177;50.844;4.412;2024-01-27T04:14:03;5.50;99.90
27797;DHT22;15177;50.844;4.412;2024-01-27T04:16:31;5.50;99.90
27797;DHT22;15177;50.844;4.412;2024-01-27T04:18:57;5.50;99.90
27797;DHT22;15177;50.844;4.412;2024-01-27T04:21:25;5.50;99.90
27797;DHT22;15177;50.844;4.412;2024-01-27T04:23:53;5.50;99.90
27797;DHT22;15177;50.844;4.412;2024-01-27T04:26:19;5.50;99.90
27797;DHT22;15177;50.844;4.412;2024-01-27T04:28:44;5.50;99.90
27797;DHT22;15177;50.844;4.412;2024-01-27T04:31:10;5.50;99.90
27797;DHT22;15177;50.844;4.412;2024-01-27T04:33:36;5.60;99.90
27797;DHT22;15177;50.844;4.412;2024-01-27T04:36:02;5.60;99.90
27797;DHT22;15177;50.844;4.412;2024-01-27T04:38:30;5.50;99.90
27797;DHT22;15177;50.844;4.412;2024-01-27T04:40:57;5.60;99.90
27797;DHT22;15177;50.844;4.412;2024-01-27T04:43:23;5.60;99.90
27797;DHT22;15177;50.844;4.412;2024-01-27T04:45:51;5.50;99.90
27797;DHT22;15177;50.844;4.412;2024-01-27T04:48:17;5.40;99.90
27797;DHT22;15177;50.844;4.412;2024-01-27T04:50:43;5.40;99.90
27797;DHT22;15177;50.844;4.412;2024-01-27T04:53:08;5.40;99.90
27797;DHT22;15177;50.844;4.412;2024-01-27T04:55:34;5.50;99.90
27797;DHT22;15177;50.844;4.412;2024-01-27T04:58:00;5.50;99.90
27797;DHT22;15177;50.844;4.412;2024-01-27T05:00:26;5.50;99.90
27797;DHT22;15177;50.844;4.412;2024-01-27T05:02:54;5.40;99.90
27797;DHT22;15177;50.844;4.412;2024-01-27T05:05:20;5.40;99.90
27797;DHT22;15177;50.844;4.412;2024-01-27T05:07:48;5.50;99.90
27797;DHT22;15177;50.844;4.412;2024-01-27T05:10:15;5.40;99.90
27797;DHT22;15177;50.844;4.412;2024-01-27T05:12:41;5.50;99.90
27797;DHT22;15177;50.844;4.412;2024-01-27T05:15:07;5.40;99.90
27797;DHT22;15177;50.844;4.412;2024-01-27T05:17:33;5.30;99.90
27797;DHT22;15177;50.844;4.412;2024-01-27T05:19:59;5.30;99.90
27797;DHT22;15177;50.844;4.412;2024-01-27T05:22:25;5.40;99.90
27797;DHT22;15177;50.844;4.412;2024-01-27T05:24:52;5.30;99.90
27797;DHT22;15177;50.844;4.412;2024-01-27T05:27:18;5.40;99.90
27797;DHT22;15177;50.844;4.412;2024-01-27T05:29:44;5.40;99.90
27797;DHT22;15177;50.844;4.412;2024-01-27T05:32:12;5.50;99.90
27797;DHT22;15177;50.844;4.412;2024-01-27T05:34:37;5.50;99.90
27797;DHT22;15177;50.844;4.412;2024-01-27T05:37:03;5.50;99.90
27797;DHT22;15177;50.844;4.412;2024-01-27T05:39:31;5.50;99.90
27797;DHT22;15177;50.844;4.412;2024-01-27T05:41:57;5.40;99.90
27797;DHT22;15177;50.844;4.412;2024-01-27T05:44:25;5.30;99.90
27797;DHT22;15177;50.844;4.412;2024-01-27T05:46:51;5.40;99.90
27797;DHT22;15177;50.844;4.412;2024-01-27T05:49:21;5.30;99.90
27797;DHT22;15177;50.844;4.412;2024-01-27T05:51:49;5.40;99.90
27797;DHT22;15177;50.844;4.412;2024-01-27T05:54:15;5.40;99.90
27797;DHT22;15177;50.844;4.412;2024-01-27T05:56:42;5.20;99.90
27797;DHT22;15177;50.844;4.412;2024-01-27T05:59:08;5.20;99.90
27797;DHT22;15177;50.844;4.412;2024-01-27T06:01:36;5.20;99.90
27797;DHT22;15177;50.844;4.412;2024-01-27T06:04:02;5.20;99.90
27797;DHT22;15177;50.844;4.412;2024-01-27T06:06:30;5.30;99.90
27797;DHT22;15177;50.844;4.412;2024-01-27T06:08:58;5.20;99.90
27797;DHT22;15177;50.844;4.412;2024-01-27T06:11:25;5.30;99.90
27797;DHT22;15177;50.844;4.412;2024-01-27T06:13:53;5.40;99.90
27797;DHT22;15177;50.844;4.412;2024-01-27T06:16:19;5.30;99.90
27797;DHT22;15177;50.844;4.412;2024-01-27T06:18:45;5.20;99.90
27797;DHT22;15177;50.844;4.412;2024-01-27T06:21:10;5.10;99.90
27797;DHT22;15177;50.844;4.412;2024-01-27T06:23:36;5.20;99.90
27797;DHT22;15177;50.844;4.412;2024-01-27T06:26:06;5.20;99.90
27797;DHT22;15177;50.844;4.412;2024-01-27T06:28:36;5.30;99.90
27797;DHT22;15177;50.844;4.412;2024-01-27T06:31:06;5.30;99.90
27797;DHT22;15177;50.844;4.412;2024-01-27T06:33:35;5.30;99.90
27797;DHT22;15177;50.844;4.412;2024-01-27T06:36:01;5.30;99.90
27797;DHT22;15177;50.844;4.412;2024-01-27T06:38:29;5.20;99.90
27797;DHT22;15177;50.844;4.412;2024-01-27T06:40:59;5.10;99.90
27797;DHT22;15177;50.844;4.412;2024-01-27T06:43:25;5.10;99.90
27797;DHT22;15177;50.844;4.412;2024-01-27T06:45:55;5.20;99.90
27797;DHT22;15177;50.844;4.412;2024-01-27T06:48:24;5.10;99.90
27797;DHT22;15177;50.844;4.412;2024-01-27T06:50:51;5.10;99.90
27797;DHT22;15177;50.844;4.412;2024-01-27T06:53:19;5.30;99.90
27797;DHT22;15177;50.844;4.412;2024-01-27T06:55:45;5.20;99.90
27797;DHT22;15177;50.844;4.412;2024-01-27T06:58:11;5.20;99.90
27797;DHT22;15177;50.844;4.412;2024-01-27T07:00:37;5.10;99.90
27797;DHT22;15177;50.844;4.412;2024-01-27T07:03:08;5.20;99.90
27797;DHT22;15177;50.844;4.412;2024-01-27T07:05:36;5.10;99.90
27797;DHT22;15177;50.844;4.412;2024-01-27T07:08:09;5.10;99.90
27797;DHT22;15177;50.844;4.412;2024-01-27T07:10:37;5.20;99.90
27797;DHT22;15177;50.844;4.412;2024-01-27T07:13:03;5.20;99.90
27797;DHT22;15177;50.844;4.412;2024-01-27T07:15:29;5.10;99.90
27797;DHT22;15177;50.844;4.412;2024-01-27T07:17:54;5.10;99.90
27797;DHT22;15177;50.844;4.412;2024-01-27T07:20:20;5.10;99.90
27797;DHT22;15177;50.844;4.412;2024-01-27T07:22:51;5.10;99.90
27797;DHT22;15177;50.844;4.412;2024-01-27T07:25:17;5.10;99.90
27797;DHT22;15177;50.844;4.412;2024-01-27T07:27:45;5.10;99.90
27797;DHT22;15177;50.844;4.412;2024-01-27T07:30:11;5.10;99.90
27797;DHT22;15177;50.844;4.412;2024-01-27T07:32:40;5.00;99.90
27797;DHT22;15177;50.844;4.412;2024-01-27T07:35:06;5.10;99.90
27797;DHT22;15177;50.844;4.412;2024-01-27T07:37:32;5.20;99.90
27797;DHT22;15177;50.844;4.412;2024-01-27T07:39:57;5.20;99.90
27797;DHT22;15177;50.844;4.412;2024-01-27T07:42:25;5.20;99.90
27797;DHT22;15177;50.844;4.412;2024-01-27T07:44:53;5.20;99.90
27797;DHT22;15177;50.844;4.412;2024-01-27T07:47:21;5.20;99.90
27797;DHT22;15177;50.844;4.412;2024-01-27T07:49:47;5.30;99.90
27797;DHT22;15177;50.844;4.412;2024-01-27T07:52:14;5.30;99.90
27797;DHT22;15177;50.844;4.412;2024-01-27T07:54:40;5.30;99.90
27797;DHT22;15177;50.844;4.412;2024-01-27T07:57:06;5.30;99.90
27797;DHT22;15177;50.844;4.412;2024-01-27T07:59:32;5.40;99.90
27797;DHT22;15177;50.844;4.412;2024-01-27T08:01:59;5.40;99.90
27797;DHT22;15177;50.844;4.412;2024-01-27T08:04:27;5.40;99.90
27797;DHT22;15177;50.844;4.412;2024-01-27T08:06:53;5.50;99.90
27797;DHT22;15177;50.844;4.412;2024-01-27T08:09:19;5.60;99.90
27797;DHT22;15177;50.844;4.412;2024-01-27T08:11:47;5.60;99.90
27797;DHT22;15177;50.844;4.412;2024-01-27T08:14:17;5.70;99.90
27797;DHT22;15177;50.844;4.412;2024-01-27T08:16:42;5.80;99.90
27797;DHT22;15177;50.844;4.412;2024-01-27T08:19:08;5.80;99.90
27797;DHT22;15177;50.844;4.412;2024-01-27T08:21:34;5.90;99.90
27797;DHT22;15177;50.844;4.412;2024-01-27T08:24:02;5.90;99.90
27797;DHT22;15177;50.844;4.412;2024-01-27T08:26:27;6.00;99.90
27797;DHT22;15177;50.844;4.412;2024-01-27T08:28:56;6.00;99.90
27797;DHT22;15177;50.844;4.412;2024-01-27T08:31:21;6.00;99.90
27797;DHT22;15177;50.844;4.412;2024-01-27T08:33:52;6.10;99.90
27797;DHT22;15177;50.844;4.412;2024-01-27T08:36:17;6.20;99.90
27797;DHT22;15177;50.844;4.412;2024-01-27T08:38:43;6.10;99.90
27797;DHT22;15177;50.844;4.412;2024-01-27T08:41:11;6.30;99.90
27797;DHT22;15177;50.844;4.412;2024-01-27T08:43:36;6.40;99.90
27797;DHT22;15177;50.844;4.412;2024-01-27T08:46:02;6.40;99.90
27797;DHT22;15177;50.844;4.412;2024-01-27T08:48:28;6.50;99.90
27797;DHT22;15177;50.844;4.412;2024-01-27T08:50:53;6.50;99.90
27797;DHT22;15177;50.844;4.412;2024-01-27T08:53:19;6.60;99.90
27797;DHT22;15177;50.844;4.412;2024-01-27T08:55:45;6.60;99.90
27797;DHT22;15177;50.844;4.412;2024-01-27T08:58:13;6.50;99.90
27797;DHT22;15177;50.844;4.412;2024-01-27T09:00:41;6.60;99.90
27797;DHT22;15177;50.844;4.412;2024-01-27T09:03:06;6.70;99.90
27797;DHT22;15177;50.844;4.412;2024-01-27T09:05:34;6.80;99.90
27797;DHT22;15177;50.844;4.412;2024-01-27T09:08:02;6.90;99.90
27797;DHT22;15177;50.844;4.412;2024-01-27T09:10:32;6.90;99.90
27797;DHT22;15177;50.844;4.412;2024-01-27T09:13:00;6.90;99.90
27797;DHT22;15177;50.844;4.412;2024-01-27T09:15:26;6.90;99.90
27797;DHT22;15177;50.844;4.412;2024-01-27T09:17:52;7.00;99.90
27797;DHT22;15177;50.844;4.412;2024-01-27T09:20:17;7.10;99.90
27797;DHT22;15177;50.844;4.412;2024-01-27T09:22:43;7.10;99.90
27797;DHT22;15177;50.844;4.412;2024-01-27T09:25:10;7.10;99.90
27797;DHT22;15177;50.844;4.412;2024-01-27T09:27:38;7.20;99.90
27797;DHT22;15177;50.844;4.412;2024-01-27T09:30:04;7.20;99.90
27797;DHT22;15177;50.844;4.412;2024-01-27T09:32:33;7.20;99.90
27797;DHT22;15177;50.844;4.412;2024-01-27T09:35:03;7.20;99.90
27797;DHT22;15177;50.844;4.412;2024-01-27T09:37:31;7.20;99.90
27797;DHT22;15177;50.844;4.412;2024-01-27T09:39:58;7.30;99.90
27797;DHT22;15177;50.844;4.412;2024-01-27T09:42:26;7.40;99.90
27797;DHT22;15177;50.844;4.412;2024-01-27T09:44:56;7.30;99.90
27797;DHT22;15177;50.844;4.412;2024-01-27T09:47:24;7.40;99.90
27797;DHT22;15177;50.844;4.412;2024-01-27T09:49:50;7.40;99.90
27797;DHT22;15177;50.844;4.412;2024-01-27T09:52:16;7.40;99.90
27797;DHT22;15177;50.844;4.412;2024-01-27T09:54:42;7.40;99.90
27797;DHT22;15177;50.844;4.412;2024-01-27T09:57:09;7.50;99.90
27797;DHT22;15177;50.844;4.412;2024-01-27T09:59:41;7.60;99.90
27797;DHT22;15177;50.844;4.412;2024-01-27T10:02:11;7.70;99.90
27797;DHT22;15177;50.844;4.412;2024-01-27T10:04:39;7.70;99.90
27797;DHT22;15177;50.844;4.412;2024-01-27T10:07:06;7.90;99.90
27797;DHT22;15177;50.844;4.412;2024-01-27T10:09:34;8.20;99.90
27797;DHT22;15177;50.844;4.412;2024-01-27T10:12:03;8.60;99.90
27797;DHT22;15177;50.844;4.412;2024-01-27T10:14:42;9.10;99.90
27797;DHT22;15177;50.844;4.412;2024-01-27T10:17:11;9.70;99.90
27797;DHT22;15177;50.844;4.412;2024-01-27T10:19:37;10.30;99.90
27797;DHT22;15177;50.844;4.412;2024-01-27T10:22:03;10.90;99.90
27797;DHT22;15177;50.844;4.412;2024-01-27T10:24:32;11.40;99.90
27797;DHT22;15177;50.844;4.412;2024-01-27T10:27:03;11.90;99.90
27797;DHT22;15177;50.844;4.412;2024-01-27T10:29:30;12.20;99.90
27797;DHT22;15177;50.844;4.412;2024-01-27T10:32:07;12.40;99.90
27797;DHT22;15177;50.844;4.412;2024-01-27T10:34:34;12.60;99.90
27797;DHT22;15177;50.844;4.412;2024-01-27T10:36:59;12.70;99.90
27797;DHT22;15177;50.844;4.412;2024-01-27T10:39:27;12.60;99.90
27797;DHT22;15177;50.844;4.412;2024-01-27T10:41:53;12.50;99.90
27797;DHT22;15177;50.844;4.412;2024-01-27T10:44:19;12.30;99.90
27797;DHT22;15177;50.844;4.412;2024-01-27T10:46:48;12.10;99.90
27797;DHT22;15177;50.844;4.412;2024-01-27T10:49:16;11.90;99.90
27797;DHT22;15177;50.844;4.412;2024-01-27T10:51:55;11.60;99.90
27797;DHT22;15177;50.844;4.412;2024-01-27T10:54:28;11.30;99.90
27797;DHT22;15177;50.844;4.412;2024-01-27T10:56:56;11.10;99.90
27797;DHT22;15177;50.844;4.412;2024-01-27T10:59:26;11.00;99.90
27797;DHT22;15177;50.844;4.412;2024-01-27T11:01:54;10.90;99.90
27797;DHT22;15177;50.844;4.412;2024-01-27T11:04:23;10.80;99.90
27797;DHT22;15177;50.844;4.412;2024-01-27T11:06:49;10.60;99.90
27797;DHT22;15177;50.844;4.412;2024-01-27T11:09:15;10.50;99.90
27797;DHT22;15177;50.844;4.412;2024-01-27T11:11:43;10.30;99.90
27797;DHT22;15177;50.844;4.412;2024-01-27T11:14:13;10.20;99.90
27797;DHT22;15177;50.844;4.412;2024-01-27T11:16:38;10.00;99.90
27797;DHT22;15177;50.844;4.412;2024-01-27T11:19:14;10.00;99.90
27797;DHT22;15177;50.844;4.412;2024-01-27T11:21:42;9.90;99.90
27797;DHT22;15177;50.844;4.412;2024-01-27T11:24:17;9.70;99.90
27797;DHT22;15177;50.844;4.412;2024-01-27T11:26:46;9.50;99.90
27797;DHT22;15177;50.844;4.412;2024-01-27T11:29:11;9.40;99.90
27797;DHT22;15177;50.844;4.412;2024-01-27T11:31:46;9.30;99.90
27797;DHT22;15177;50.844;4.412;2024-01-27T11:34:12;9.10;99.90
27797;DHT22;15177;50.844;4.412;2024-01-27T11:36:45;9.30;99.90
27797;DHT22;15177;50.844;4.412;2024-01-27T11:39:45;9.30;99.90
27797;DHT22;15177;50.844;4.412;2024-01-27T11:42:14;9.30;99.90
27797;DHT22;15177;50.844;4.412;2024-01-27T11:44:41;9.30;99.90
27797;DHT22;15177;50.844;4.412;2024-01-27T11:47:17;9.20;99.90
27797;DHT22;15177;50.844;4.412;2024-01-27T11:49:43;9.20;99.90
27797;DHT22;15177;50.844;4.412;2024-01-27T11:52:11;9.30;99.90
27797;DHT22;15177;50.844;4.412;2024-01-27T11:54:36;9.40;99.90
27797;DHT22;15177;50.844;4.412;2024-01-27T11:57:04;9.30;99.90
27797;DHT22;15177;50.844;4.412;2024-01-27T11:59:34;9.40;99.90
27797;DHT22;15177;50.844;4.412;2024-01-27T12:02:01;9.40;99.90
27797;DHT22;15177;50.844;4.412;2024-01-27T12:04:27;9.50;99.90
27797;DHT22;15177;50.844;4.412;2024-01-27T12:06:53;9.50;99.90
27797;DHT22;15177;50.844;4.412;2024-01-27T12:09:19;9.60;99.90
27797;DHT22;15177;50.844;4.412;2024-01-27T12:11:48;9.70;99.90
27797;DHT22;15177;50.844;4.412;2024-01-27T12:14:13;9.90;99.90
27797;DHT22;15177;50.844;4.412;2024-01-27T12:16:39;9.90;99.90
27797;DHT22;15177;50.844;4.412;2024-01-27T12:19:09;10.10;99.90
27797;DHT22;15177;50.844;4.412;2024-01-27T12:21:35;10.10;99.90
27797;DHT22;15177;50.844;4.412;2024-01-27T12:24:01;10.20;99.90
27797;DHT22;15177;50.844;4.412;2024-01-27T12:26:30;10.30;99.90
27797;DHT22;15177;50.844;4.412;2024-01-27T12:28:57;10.30;99.90
27797;DHT22;15177;50.844;4.412;2024-01-27T12:31:23;10.40;99.90
27797;DHT22;15177;50.844;4.412;2024-01-27T12:33:53;10.30;99.90
27797;DHT22;15177;50.844;4.412;2024-01-27T12:36:24;10.50;99.90
27797;DHT22;15177;50.844;4.412;2024-01-27T12:39:00;10.40;99.90
27797;DHT22;15177;50.844;4.412;2024-01-27T12:41:27;10.40;99.90
27797;DHT22;15177;50.844;4.412;2024-01-27T12:43:54;10.50;99.90
27797;DHT22;15177;50.844;4.412;2024-01-27T12:46:20;10.60;99.90
27797;DHT22;15177;50.844;4.412;2024-01-27T12:48:46;10.60;99.90
27797;DHT22;15177;50.844;4.412;2024-01-27T12:51:12;10.70;99.90
27797;DHT22;15177;50.844;4.412;2024-01-27T12:53:39;10.80;99.90
27797;DHT22;15177;50.844;4.412;2024-01-27T12:56:08;10.70;99.90
27797;DHT22;15177;50.844;4.412;2024-01-27T12:58:34;10.70;99.90
27797;DHT22;15177;50.844;4.412;2024-01-27T13:01:00;10.60;99.90
27797;DHT22;15177;50.844;4.412;2024-01-27T13:03:26;10.60;99.90
27797;DHT22;15177;50.844;4.412;2024-01-27T13:05:57;10.70;99.90
27797;DHT22;15177;50.844;4.412;2024-01-27T13:08:23;10.80;99.90
27797;DHT22;15177;50.844;4.412;2024-01-27T13:10:49;10.90;99.90
27797;DHT22;15177;50.844;4.412;2024-01-27T13:13:17;10.80;99.90
27797;DHT22;15177;50.844;4.412;2024-01-27T13:15:43;10.80;99.90
27797;DHT22;15177;50.844;4.412;2024-01-27T13:18:09;10.60;99.90
27797;DHT22;15177;50.844;4.412;2024-01-27T13:20:36;10.50;99.90
27797;DHT22;15177;50.844;4.412;2024-01-27T13:23:02;10.70;99.90
27797;DHT22;15177;50.844;4.412;2024-01-27T13:25:28;10.80;99.90
27797;DHT22;15177;50.844;4.412;2024-01-27T13:27:56;10.70;99.90
27797;DHT22;15177;50.844;4.412;2024-01-27T13:30:24;10.40;99.90
27797;DHT22;15177;50.844;4.412;2024-01-27T13:32:50;10.50;99.90
27797;DHT22;15177;50.844;4.412;2024-01-27T13:35:16;10.60;99.90
27797;DHT22;15177;50.844;4.412;2024-01-27T13:37:44;10.60;99.90
27797;DHT22;15177;50.844;4.412;2024-01-27T13:40:11;10.30;99.90
27797;DHT22;15177;50.844;4.412;2024-01-27T13:42:37;10.40;99.90
27797;DHT22;15177;50.844;4.412;2024-01-27T13:45:03;10.50;99.90
27797;DHT22;15177;50.844;4.412;2024-01-27T13:47:30;10.40;99.90
27797;DHT22;15177;50.844;4.412;2024-01-27T13:49:58;10.40;99.90
27797;DHT22;15177;50.844;4.412;2024-01-27T13:52:24;10.40;99.90
27797;DHT22;15177;50.844;4.412;2024-01-27T13:54:54;10.60;99.90
27797;DHT22;15177;50.844;4.412;2024-01-27T13:57:20;10.60;99.90
27797;DHT22;15177;50.844;4.412;2024-01-27T13:59:49;10.50;99.90
27797;DHT22;15177;50.844;4.412;2024-01-27T14:02:14;10.60;99.90
27797;DHT22;15177;50.844;4.412;2024-01-27T14:04:40;10.60;99.90
27797;DHT22;15177;50.844;4.412;2024-01-27T14:07:06;10.60;99.90
27797;DHT22;15177;50.844;4.412;2024-01-27T14:09:34;10.50;99.90
27797;DHT22;15177;50.844;4.412;2024-01-27T14:12:02;10.60;99.90
27797;DHT22;15177;50.844;4.412;2024-01-27T14:14:31;10.50;99.90
27797;DHT22;15177;50.844;4.412;2024-01-27T14:16:57;10.40;99.90
27797;DHT22;15177;50.844;4.412;2024-01-27T14:19:25;10.50;99.90
27797;DHT22;15177;50.844;4.412;2024-01-27T14:21:53;10.60;99.90
27797;DHT22;15177;50.844;4.412;2024-01-27T14:24:19;10.60;99.90
27797;DHT22;15177;50.844;4.412;2024-01-27T14:26:44;10.40;99.90
27797;DHT22;15177;50.844;4.412;2024-01-27T14:29:10;10.40;99.90
27797;DHT22;15177;50.844;4.412;2024-01-27T14:31:35;10.30;99.90
27797;DHT22;15177;50.844;4.412;2024-01-27T14:34:02;10.20;99.90
27797;DHT22;15177;50.844;4.412;2024-01-27T14:36:27;10.10;99.90
27797;DHT22;15177;50.844;4.412;2024-01-27T14:38:58;10.20;99.90
27797;DHT22;15177;50.844;4.412;2024-01-27T14:41:29;10.30;99.90
27797;DHT22;15177;50.844;4.412;2024-01-27T14:43:54;10.20;99.90
27797;DHT22;15177;50.844;4.412;2024-01-27T14:46:23;10.00;99.90
27797;DHT22;15177;50.844;4.412;2024-01-27T14:48:48;9.80;99.90
27797;DHT22;15177;50.844;4.412;2024-01-27T14:51:16;9.80;99.90
27797;DHT22;15177;50.844;4.412;2024-01-27T14:53:42;9.70;99.90
27797;DHT22;15177;50.844;4.412;2024-01-27T14:56:08;9.80;99.90
27797;DHT22;15177;50.844;4.412;2024-01-27T14:58:34;9.70;99.90
27797;DHT22;15177;50.844;4.412;2024-01-27T15:01:04;9.70;99.90
27797;DHT22;15177;50.844;4.412;2024-01-27T15:03:30;9.60;99.90
27797;DHT22;15177;50.844;4.412;2024-01-27T15:05:58;9.60;99.90
27797;DHT22;15177;50.844;4.412;2024-01-27T15:08:24;9.60;99.90
27797;DHT22;15177;50.844;4.412;2024-01-27T15:10:50;9.60;99.90
27797;DHT22;15177;50.844;4.412;2024-01-27T15:13:15;9.50;99.90
27797;DHT22;15177;50.844;4.412;2024-01-27T15:15:47;9.40;99.90
27797;DHT22;15177;50.844;4.412;2024-01-27T15:18:16;9.40;99.90
27797;DHT22;15177;50.844;4.412;2024-01-27T15:20:42;9.30;99.90
27797;DHT22;15177;50.844;4.412;2024-01-27T15:23:07;9.30;99.90
27797;DHT22;15177;50.844;4.412;2024-01-27T15:25:33;9.20;99.90
27797;DHT22;15177;50.844;4.412;2024-01-27T15:28:01;9.10;99.90
27797;DHT22;15177;50.844;4.412;2024-01-27T15:30:29;9.20;99.90
27797;DHT22;15177;50.844;4.412;2024-01-27T15:32:55;9.30;99.90
27797;DHT22;15177;50.844;4.412;2024-01-27T15:35:20;9.20;99.90
27797;DHT22;15177;50.844;4.412;2024-01-27T15:37:46;9.10;99.90
27797;DHT22;15177;50.844;4.412;2024-01-27T15:40:14;9.10;99.90
27797;DHT22;15177;50.844;4.412;2024-01-27T15:42:40;9.10;99.90